sensor_id;sensor_type;location;lat;lon;timestamp;temperature;humidity
13697;DHT22;6920;50.080;8.226;2024-01-15T00:02:04;-1.00;99.90
13697;DHT22;6920;50.080;8.226;2024-01-15T00:04:37;-1.10;99.90
13697;DHT22;6920;50.080;8.226;2024-01-15T00:07:05;-1.10;99.90
13697;DHT22;6920;50.080;8.226;2024-01-15T00:09:39;-1.10;99.90
13697;DHT22;6920;50.080;8.226;2024-01-15T00:12:12;-1.20;99.90
13697;DHT22;6920;50.080;8.226;2024-01-15T00:14:44;-1.10;99.90
13697;DHT22;6920;50.080;8.226;2024-01-15T00:17:12;-1.10;99.90
13697;DHT22;6920;50.080;8.226;2024-01-15T00:19:39;-1.10;99.90
13697;DHT22;6920;50.080;8.226;2024-01-15T00:22:08;-1.00;99.90
13697;DHT22;6920;50.080;8.226;2024-01-15T00:24:41;-0.90;99.90
13697;DHT22;6920;50.080;8.226;2024-01-15T00:27:10;-1.00;99.90
13697;DHT22;6920;50.080;8.226;2024-01-15T00:29:38;-1.00;99.90
13697;DHT22;6920;50.080;8.226;2024-01-15T00:32:09;-1.00;99.90
13697;DHT22;6920;50.080;8.226;2024-01-15T00:37:06;-0.90;99.90
13697;DHT22;6920;50.080;8.226;2024-01-15T00:39:35;-0.90;99.90
13697;DHT22;6920;50.080;8.226;2024-01-15T00:42:05;-0.90;99.90
13697;DHT22;6920;50.080;8.226;2024-01-15T00:44:34;-0.90;99.90
13697;DHT22;6920;50.080;8.226;2024-01-15T00:47:02;-0.90;99.90
13697;DHT22;6920;50.080;8.226;2024-01-15T00:49:32;-0.90;99.90
13697;DHT22;6920;50.080;8.226;2024-01-15T00:51:59;-0.80;99.90
13697;DHT22;6920;50.080;8.226;2024-01-15T00:54:41;-0.80;99.90
13697;DHT22;6920;50.080;8.226;2024-01-15T00:57:14;-0.70;99.90
13697;DHT22;6920;50.080;8.226;2024-01-15T00:59:41;-0.70;99.90
13697;DHT22;6920;50.080;8.226;2024-01-15T01:02:08;-0.60;99.90
13697;DHT22;6920;50.080;8.226;2024-01-15T01:07:03;-0.60;99.90
13697;DHT22;6920;50.080;8.226;2024-01-15T01:09:32;-0.60;99.90
13697;DHT22;6920;50.080;8.226;2024-01-15T01:12:00;-0.60;99.90
13697;DHT22;6920;50.080;8.226;2024-01-15T01:14:29;-0.70;99.90
13697;DHT22;6920;50.080;8.226;2024-01-15T01:16:58;-0.60;99.90
13697;DHT22;6920;50.080;8.226;2024-01-15T01:19:25;-0.60;99.90
13697;DHT22;6920;50.080;8.226;2024-01-15T01:29:16;-0.50;99.90
13697;DHT22;6920;50.080;8.226;2024-01-15T01:34:15;-0.50;99.90
13697;DHT22;6920;50.080;8.226;2024-01-15T01:36:42;-0.60;99.90
13697;DHT22;6920;50.080;8.226;2024-01-15T01:41:38;-0.60;99.90
13697;DHT22;6920;50.080;8.226;2024-01-15T01:44:05;-0.50;99.90
13697;DHT22;6920;50.080;8.226;2024-01-15T01:46:34;-0.40;99.90
13697;DHT22;6920;50.080;8.226;2024-01-15T01:49:07;-0.40;99.90
13697;DHT22;6920;50.080;8.226;2024-01-15T01:51:35;-0.40;99.90
13697;DHT22;6920;50.080;8.226;2024-01-15T01:54:05;-0.40;99.90
13697;DHT22;6920;50.080;8.226;2024-01-15T01:56:33;-0.40;99.90
13697;DHT22;6920;50.080;8.226;2024-01-15T01:59:01;-0.50;99.90
13697;DHT22;6920;50.080;8.226;2024-01-15T02:01:29;-0.40;99.90
13697;DHT22;6920;50.080;8.226;2024-01-15T02:08:55;-0.40;99.90
13697;DHT22;6920;50.080;8.226;2024-01-15T02:11:22;-0.40;99.90
13697;DHT22;6920;50.080;8.226;2024-01-15T02:16:17;-0.40;99.90
13697;DHT22;6920;50.080;8.226;2024-01-15T02:18:45;-0.40;99.90
13697;DHT22;6920;50.080;8.226;2024-01-15T02:33:45;-0.40;99.90
13697;DHT22;6920;50.080;8.226;2024-01-15T02:36:13;-0.40;99.90
13697;DHT22;6920;50.080;8.226;2024-01-15T02:38:56;-0.40;99.90
13697;DHT22;6920;50.080;8.226;2024-01-15T02:41:24;-0.40;99.90
13697;DHT22;6920;50.080;8.226;2024-01-15T02:43:51;-0.30;99.90
13697;DHT22;6920;50.080;8.226;2024-01-15T02:46:20;-0.40;99.90
13697;DHT22;6920;50.080;8.226;2024-01-15T02:48:47;-0.40;99.90
13697;DHT22;6920;50.080;8.226;2024-01-15T02:51:15;-0.40;99.90
13697;DHT22;6920;50.080;8.226;2024-01-15T02:53:42;-0.40;99.90
13697;DHT22;6920;50.080;8.226;2024-01-15T02:56:11;-0.50;99.90
13697;DHT22;6920;50.080;8.226;2024-01-15T03:03:34;-0.30;99.90
13697;DHT22;6920;50.080;8.226;2024-01-15T03:06:02;-0.20;99.90
13697;DHT22;6920;50.080;8.226;2024-01-15T03:08:29;-0.30;99.90
13697;DHT22;6920;50.080;8.226;2024-01-15T03:10:57;-0.20;99.90
13697;DHT22;6920;50.080;8.226;2024-01-15T03:13:26;-0.20;99.90
13697;DHT22;6920;50.080;8.226;2024-01-15T03:33:09;-0.40;99.90
13697;DHT22;6920;50.080;8.226;2024-01-15T03:35:36;-0.40;99.90
13697;DHT22;6920;50.080;8.226;2024-01-15T03:38:02;-0.40;99.90
13697;DHT22;6920;50.080;8.226;2024-01-15T03:40:29;-0.40;99.90
13697;DHT22;6920;50.080;8.226;2024-01-15T03:45:37;-0.40;99.90
13697;DHT22;6920;50.080;8.226;2024-01-15T03:48:20;-0.40;99.90
13697;DHT22;6920;50.080;8.226;2024-01-15T03:50:47;-0.40;99.90
13697;DHT22;6920;50.080;8.226;2024-01-15T03:53:28;-0.40;99.90
13697;DHT22;6920;50.080;8.226;2024-01-15T03:55:56;-0.40;99.90
13697;DHT22;6920;50.080;8.226;2024-01-15T03:58:24;-0.40;99.90
13697;DHT22;6920;50.080;8.226;2024-01-15T04:01:08;-0.50;99.90
13697;DHT22;6920;50.080;8.226;2024-01-15T04:03:51;-0.40;99.90
13697;DHT22;6920;50.080;8.226;2024-01-15T04:08:46;-0.40;99.90
13697;DHT22;6920;50.080;8.226;2024-01-15T04:16:37;-0.40;99.90
13697;DHT22;6920;50.080;8.226;2024-01-15T04:19:20;-0.40;99.90
13697;DHT22;6920;50.080;8.226;2024-01-15T04:21:50;-0.40;99.90
13697;DHT22;6920;50.080;8.226;2024-01-15T04:24:17;-0.30;99.90
13697;DHT22;6920;50.080;8.226;2024-01-15T04:29:27;-0.30;99.90
13697;DHT22;6920;50.080;8.226;2024-01-15T04:36:52;-0.40;99.90
13697;DHT22;6920;50.080;8.226;2024-01-15T04:42:00;-0.30;99.90
13697;DHT22;6920;50.080;8.226;2024-01-15T04:44:28;-0.30;99.90
13697;DHT22;6920;50.080;8.226;2024-01-15T04:47:04;-0.40;99.90
13697;DHT22;6920;50.080;8.226;2024-01-15T04:52:00;-0.30;99.90
13697;DHT22;6920;50.080;8.226;2024-01-15T05:02:05;-0.20;99.90
13697;DHT22;6920;50.080;8.226;2024-01-15T05:07:02;-0.20;99.90
13697;DHT22;6920;50.080;8.226;2024-01-15T05:09:30;-0.10;99.90
13697;DHT22;6920;50.080;8.226;2024-01-15T05:19:22;-0.10;99.90
13697;DHT22;6920;50.080;8.226;2024-01-15T05:26:52;-0.10;99.90
13697;DHT22;6920;50.080;8.226;2024-01-15T05:31:48;-0.10;99.90
13697;DHT22;6920;50.080;8.226;2024-01-15T05:41:58;-0.20;99.90
13697;DHT22;6920;50.080;8.226;2024-01-15T05:54:20;-0.20;99.90
13697;DHT22;6920;50.080;8.226;2024-01-15T05:56:47;-0.20;99.90
13697;DHT22;6920;50.080;8.226;2024-01-15T05:59:14;-0.20;99.90
13697;DHT22;6920;50.080;8.226;2024-01-15T06:01:42;-0.20;99.90
13697;DHT22;6920;50.080;8.226;2024-01-15T06:04:10;-0.20;99.90
13697;DHT22;6920;50.080;8.226;2024-01-15T06:06:37;-0.20;99.90
13697;DHT22;6920;50.080;8.226;2024-01-15T06:09:04;-0.10;99.90
13697;DHT22;6920;50.080;8.226;2024-01-15T06:11:36;-0.10;99.90
13697;DHT22;6920;50.080;8.226;2024-01-15T06:16:32;0.10;99.90
13697;DHT22;6920;50.080;8.226;2024-01-15T06:23:55;0.20;99.90
13697;DHT22;6920;50.080;8.226;2024-01-15T06:31:20;0.20;99.90
13697;DHT22;6920;50.080;8.226;2024-01-15T06:33:47;0.20;99.90
13697;DHT22;6920;50.080;8.226;2024-01-15T06:36:17;0.20;99.90
13697;DHT22;6920;50.080;8.226;2024-01-15T06:41:15;0.20;99.90
13697;DHT22;6920;50.080;8.226;2024-01-15T06:43:48;0.20;99.90
13697;DHT22;6920;50.080;8.226;2024-01-15T06:48:49;0.20;99.90
13697;DHT22;6920;50.080;8.226;2024-01-15T06:56:14;0.10;99.90
13697;DHT22;6920;50.080;8.226;2024-01-15T07:08:37;0.10;99.90
13697;DHT22;6920;50.080;8.226;2024-01-15T07:11:06;0.20;99.90
13697;DHT22;6920;50.080;8.226;2024-01-15T07:13:44;0.10;99.90
13697;DHT22;6920;50.080;8.226;2024-01-15T07:16:15;0.20;99.90
13697;DHT22;6920;50.080;8.226;2024-01-15T07:21:12;0.30;99.90
13697;DHT22;6920;50.080;8.226;2024-01-15T07:23:40;0.30;99.90
13697;DHT22;6920;50.080;8.226;2024-01-15T07:26:09;0.40;99.90
13697;DHT22;6920;50.080;8.226;2024-01-15T07:28:36;0.40;99.90
13697;DHT22;6920;50.080;8.226;2024-01-15T07:36:01;0.50;99.90
13697;DHT22;6920;50.080;8.226;2024-01-15T07:38:29;0.50;99.90
13697;DHT22;6920;50.080;8.226;2024-01-15T07:40:57;0.50;99.90
13697;DHT22;6920;50.080;8.226;2024-01-15T07:43:25;0.40;99.90
13697;DHT22;6920;50.080;8.226;2024-01-15T07:45:54;0.50;99.90
13697;DHT22;6920;50.080;8.226;2024-01-15T07:48:21;0.40;99.90
13697;DHT22;6920;50.080;8.226;2024-01-15T07:50:49;0.40;99.90
13697;DHT22;6920;50.080;8.226;2024-01-15T07:53:19;0.50;99.90
13697;DHT22;6920;50.080;8.226;2024-01-15T07:55:46;0.50;99.90
13697;DHT22;6920;50.080;8.226;2024-01-15T07:58:15;0.50;99.90
13697;DHT22;6920;50.080;8.226;2024-01-15T08:03:12;0.50;99.90
13697;DHT22;6920;50.080;8.226;2024-01-15T08:05:42;0.60;99.90
13697;DHT22;6920;50.080;8.226;2024-01-15T08:08:12;0.80;99.90
13697;DHT22;6920;50.080;8.226;2024-01-15T08:14:18;0.90;99.90
13697;DHT22;6920;50.080;8.226;2024-01-15T08:19:18;0.80;99.90
13697;DHT22;6920;50.080;8.226;2024-01-15T08:26:44;0.70;99.90
13697;DHT22;6920;50.080;8.226;2024-01-15T08:31:47;0.80;99.90
13697;DHT22;6920;50.080;8.226;2024-01-15T08:36:45;-3.20;99.90
13697;DHT22;6920;50.080;8.226;2024-01-15T08:39:13;0.90;99.90
13697;DHT22;6920;50.080;8.226;2024-01-15T08:41:45;0.90;99.90
13697;DHT22;6920;50.080;8.226;2024-01-15T08:44:13;0.90;99.90
13697;DHT22;6920;50.080;8.226;2024-01-15T08:46:40;0.60;99.90
13697;DHT22;6920;50.080;8.226;2024-01-15T08:59:07;1.00;99.90
13697;DHT22;6920;50.080;8.226;2024-01-15T09:01:36;1.00;99.90
13697;DHT22;6920;50.080;8.226;2024-01-15T09:04:11;1.00;99.90
13697;DHT22;6920;50.080;8.226;2024-01-15T09:06:39;1.00;99.90
13697;DHT22;6920;50.080;8.226;2024-01-15T09:09:09;1.00;99.90
13697;DHT22;6920;50.080;8.226;2024-01-15T09:11:36;1.00;99.90
13697;DHT22;6920;50.080;8.226;2024-01-15T09:14:06;2.90;99.90
13697;DHT22;6920;50.080;8.226;2024-01-15T09:16:35;1.10;99.90
13697;DHT22;6920;50.080;8.226;2024-01-15T09:19:41;1.00;99.90
13697;DHT22;6920;50.080;8.226;2024-01-15T09:22:22;1.00;99.90
13697;DHT22;6920;50.080;8.226;2024-01-15T09:24:50;1.00;99.90
13697;DHT22;6920;50.080;8.226;2024-01-15T09:27:17;1.10;99.90
13697;DHT22;6920;50.080;8.226;2024-01-15T09:29:46;1.10;99.90
13697;DHT22;6920;50.080;8.226;2024-01-15T09:34:46;1.30;99.90
13697;DHT22;6920;50.080;8.226;2024-01-15T09:47:10;1.60;99.90
13697;DHT22;6920;50.080;8.226;2024-01-15T09:52:08;1.60;99.90
13697;DHT22;6920;50.080;8.226;2024-01-15T09:54:37;1.60;99.90
13697;DHT22;6920;50.080;8.226;2024-01-15T09:57:06;1.60;99.90
13697;DHT22;6920;50.080;8.226;2024-01-15T09:59:34;1.90;99.90
13697;DHT22;6920;50.080;8.226;2024-01-15T10:02:06;1.90;99.90
13697;DHT22;6920;50.080;8.226;2024-01-15T10:04:34;1.90;99.90
13697;DHT22;6920;50.080;8.226;2024-01-15T10:07:03;1.90;99.90
13697;DHT22;6920;50.080;8.226;2024-01-15T10:09:35;1.40;99.90
13697;DHT22;6920;50.080;8.226;2024-01-15T10:12:02;1.90;99.90
13697;DHT22;6920;50.080;8.226;2024-01-15T10:14:31;1.90;99.90
13697;DHT22;6920;50.080;8.226;2024-01-15T10:19:31;1.70;99.90
13697;DHT22;6920;50.080;8.226;2024-01-15T10:21:59;1.60;99.90
13697;DHT22;6920;50.080;8.226;2024-01-15T10:24:29;1.50;99.90
13697;DHT22;6920;50.080;8.226;2024-01-15T10:27:07;1.60;99.90
13697;DHT22;6920;50.080;8.226;2024-01-15T10:29:36;1.50;99.90
13697;DHT22;6920;50.080;8.226;2024-01-15T10:32:06;1.40;99.90
13697;DHT22;6920;50.080;8.226;2024-01-15T10:37:20;1.40;99.90
13697;DHT22;6920;50.080;8.226;2024-01-15T10:39:48;1.40;99.90
13697;DHT22;6920;50.080;8.226;2024-01-15T10:42:32;1.40;99.90
13697;DHT22;6920;50.080;8.226;2024-01-15T10:45:08;1.40;99.90
13697;DHT22;6920;50.080;8.226;2024-01-15T10:47:41;1.40;99.90
13697;DHT22;6920;50.080;8.226;2024-01-15T10:50:09;1.30;99.90
13697;DHT22;6920;50.080;8.226;2024-01-15T10:52:39;1.30;99.90
13697;DHT22;6920;50.080;8.226;2024-01-15T10:55:08;1.30;99.90
13697;DHT22;6920;50.080;8.226;2024-01-15T10:57:40;1.30;99.90
13697;DHT22;6920;50.080;8.226;2024-01-15T11:02:41;1.40;99.90
13697;DHT22;6920;50.080;8.226;2024-01-15T11:10:38;1.60;99.90
13697;DHT22;6920;50.080;8.226;2024-01-15T11:13:19;1.70;99.90
13697;DHT22;6920;50.080;8.226;2024-01-15T11:15:58;-2.00;99.90
13697;DHT22;6920;50.080;8.226;2024-01-15T11:18:27;1.60;99.90
13697;DHT22;6920;50.080;8.226;2024-01-15T11:21:21;1.60;99.90
13697;DHT22;6920;50.080;8.226;2024-01-15T11:23:50;1.50;99.90
13697;DHT22;6920;50.080;8.226;2024-01-15T11:26:35;1.50;99.90
13697;DHT22;6920;50.080;8.226;2024-01-15T11:29:06;1.50;99.90
13697;DHT22;6920;50.080;8.226;2024-01-15T11:31:58;1.60;99.90
13697;DHT22;6920;50.080;8.226;2024-01-15T11:34:50;1.60;99.90
13697;DHT22;6920;50.080;8.226;2024-01-15T11:37:20;1.50;99.90
13697;DHT22;6920;50.080;8.226;2024-01-15T11:39:54;1.60;99.90
13697;DHT22;6920;50.080;8.226;2024-01-15T11:42:23;1.60;99.90
13697;DHT22;6920;50.080;8.226;2024-01-15T11:50:44;1.80;99.90
13697;DHT22;6920;50.080;8.226;2024-01-15T11:53:31;1.80;99.90
13697;DHT22;6920;50.080;8.226;2024-01-15T11:56:14;1.90;99.90
13697;DHT22;6920;50.080;8.226;2024-01-15T11:58:42;2.00;99.90
13697;DHT22;6920;50.080;8.226;2024-01-15T12:01:14;2.00;99.90
13697;DHT22;6920;50.080;8.226;2024-01-15T12:03:45;2.10;99.90
13697;DHT22;6920;50.080;8.226;2024-01-15T12:06:17;2.20;99.90
13697;DHT22;6920;50.080;8.226;2024-01-15T12:08:45;2.20;99.90
13697;DHT22;6920;50.080;8.226;2024-01-15T12:11:23;1.80;99.90
13697;DHT22;6920;50.080;8.226;2024-01-15T12:13:59;2.30;99.90
13697;DHT22;6920;50.080;8.226;2024-01-15T12:16:29;2.40;99.90
13697;DHT22;6920;50.080;8.226;2024-01-15T12:18:57;2.40;99.90
13697;DHT22;6920;50.080;8.226;2024-01-15T12:21:28;2.40;99.90
13697;DHT22;6920;50.080;8.226;2024-01-15T12:26:25;2.50;99.90
13697;DHT22;6920;50.080;8.226;2024-01-15T12:28:52;2.50;99.90
13697;DHT22;6920;50.080;8.226;2024-01-15T12:31:26;2.50;99.90
13697;DHT22;6920;50.080;8.226;2024-01-15T12:34:02;2.50;99.90
13697;DHT22;6920;50.080;8.226;2024-01-15T12:36:31;2.50;99.90
13697;DHT22;6920;50.080;8.226;2024-01-15T12:38:59;2.70;99.90
13697;DHT22;6920;50.080;8.226;2024-01-15T12:41:31;2.70;99.90
13697;DHT22;6920;50.080;8.226;2024-01-15T12:46:29;2.60;99.90
13697;DHT22;6920;50.080;8.226;2024-01-15T12:51:27;2.70;99.90
13697;DHT22;6920;50.080;8.226;2024-01-15T12:53:56;2.70;99.90
13697;DHT22;6920;50.080;8.226;2024-01-15T12:56:24;2.60;99.90
13697;DHT22;6920;50.080;8.226;2024-01-15T12:58:55;2.70;99.90
13697;DHT22;6920;50.080;8.226;2024-01-15T13:01:22;2.70;99.90
13697;DHT22;6920;50.080;8.226;2024-01-15T13:03:49;2.60;99.90
13697;DHT22;6920;50.080;8.226;2024-01-15T13:06:19;2.70;99.90
13697;DHT22;6920;50.080;8.226;2024-01-15T13:08:49;2.70;99.90
13697;DHT22;6920;50.080;8.226;2024-01-15T13:11:17;2.60;99.90
13697;DHT22;6920;50.080;8.226;2024-01-15T13:13:45;2.60;99.90
13697;DHT22;6920;50.080;8.226;2024-01-15T13:16:14;2.60;99.90
13697;DHT22;6920;50.080;8.226;2024-01-15T13:21:09;2.60;99.90
13697;DHT22;6920;50.080;8.226;2024-01-15T13:26:09;2.60;99.90
13697;DHT22;6920;50.080;8.226;2024-01-15T13:28:37;2.50;99.90
13697;DHT22;6920;50.080;8.226;2024-01-15T13:31:05;2.50;99.90
13697;DHT22;6920;50.080;8.226;2024-01-15T13:33:33;2.50;99.90
13697;DHT22;6920;50.080;8.226;2024-01-15T13:36:00;2.50;99.90
13697;DHT22;6920;50.080;8.226;2024-01-15T13:41:03;2.60;99.90
13697;DHT22;6920;50.080;8.226;2024-01-15T13:46:04;2.60;99.90
13697;DHT22;6920;50.080;8.226;2024-01-15T13:51:02;2.50;99.90
13697;DHT22;6920;50.080;8.226;2024-01-15T13:53:30;2.50;99.90
13697;DHT22;6920;50.080;8.226;2024-01-15T13:55:58;2.50;99.90
13697;DHT22;6920;50.080;8.226;2024-01-15T13:58:26;2.50;99.90
13697;DHT22;6920;50.080;8.226;2024-01-15T14:00:55;2.50;99.90
13697;DHT22;6920;50.080;8.226;2024-01-15T14:03:23;2.40;99.90
13697;DHT22;6920;50.080;8.226;2024-01-15T14:05:52;2.40;99.90
13697;DHT22;6920;50.080;8.226;2024-01-15T14:08:20;2.40;99.90
13697;DHT22;6920;50.080;8.226;2024-01-15T14:10:49;2.40;99.90
13697;DHT22;6920;50.080;8.226;2024-01-15T14:13:21;2.60;99.90
13697;DHT22;6920;50.080;8.226;2024-01-15T14:15:49;2.60;99.90
13697;DHT22;6920;50.080;8.226;2024-01-15T14:18:18;2.70;99.90
13697;DHT22;6920;50.080;8.226;2024-01-15T14:20:46;2.60;99.90
13697;DHT22;6920;50.080;8.226;2024-01-15T14:23:17;2.60;99.90
13697;DHT22;6920;50.080;8.226;2024-01-15T14:25:45;2.60;99.90
13697;DHT22;6920;50.080;8.226;2024-01-15T14:28:13;2.60;99.90
13697;DHT22;6920;50.080;8.226;2024-01-15T14:30:52;2.70;99.90
13697;DHT22;6920;50.080;8.226;2024-01-15T14:33:25;2.80;99.90
13697;DHT22;6920;50.080;8.226;2024-01-15T14:35:53;2.90;99.90
13697;DHT22;6920;50.080;8.226;2024-01-15T14:43:18;2.90;99.90
13697;DHT22;6920;50.080;8.226;2024-01-15T14:45:47;2.90;99.90
13697;DHT22;6920;50.080;8.226;2024-01-15T14:48:15;2.90;99.90
13697;DHT22;6920;50.080;8.226;2024-01-15T14:50:45;2.90;99.90
13697;DHT22;6920;50.080;8.226;2024-01-15T14:55:44;2.90;99.90
13697;DHT22;6920;50.080;8.226;2024-01-15T14:58:12;2.90;99.90
13697;DHT22;6920;50.080;8.226;2024-01-15T15:08:10;2.90;99.90
13697;DHT22;6920;50.080;8.226;2024-01-15T15:15:37;2.90;99.90
13697;DHT22;6920;50.080;8.226;2024-01-15T15:18:05;2.80;99.90
13697;DHT22;6920;50.080;8.226;2024-01-15T15:20:35;2.80;99.90
13697;DHT22;6920;50.080;8.226;2024-01-15T15:23:03;2.80;99.90
13697;DHT22;6920;50.080;8.226;2024-01-15T15:25:36;2.80;99.90
13697;DHT22;6920;50.080;8.226;2024-01-15T15:33:04;2.80;99.90
13697;DHT22;6920;50.080;8.226;2024-01-15T15:35:32;2.80;99.90
13697;DHT22;6920;50.080;8.226;2024-01-15T15:38:00;2.80;99.90
13697;DHT22;6920;50.080;8.226;2024-01-15T15:42:59;2.70;99.90
13697;DHT22;6920;50.080;8.226;2024-01-15T15:45:28;2.60;99.90
13697;DHT22;6920;50.080;8.226;2024-01-15T15:50:32;2.60;99.90
13697;DHT22;6920;50.080;8.226;2024-01-15T15:53:00;2.60;99.90
13697;DHT22;6920;50.080;8.226;2024-01-15T15:55:29;2.60;99.90
13697;DHT22;6920;50.080;8.226;2024-01-15T15:57:57;2.60;99.90
13697;DHT22;6920;50.080;8.226;2024-01-15T16:07:54;2.50;99.90
13697;DHT22;6920;50.080;8.226;2024-01-15T16:15:22;2.50;99.90
13697;DHT22;6920;50.080;8.226;2024-01-15T16:17:50;2.50;99.90
13697;DHT22;6920;50.080;8.226;2024-01-15T16:20:19;2.40;99.90
13697;DHT22;6920;50.080;8.226;2024-01-15T16:25:18;5.60;99.90
13697;DHT22;6920;50.080;8.226;2024-01-15T16:27:51;2.50;99.90
13697;DHT22;6920;50.080;8.226;2024-01-15T16:30:19;2.50;99.90
13697;DHT22;6920;50.080;8.226;2024-01-15T16:32:49;2.40;99.90
13697;DHT22;6920;50.080;8.226;2024-01-15T16:35:18;2.30;99.90
13697;DHT22;6920;50.080;8.226;2024-01-15T16:37:46;2.30;99.90
13697;DHT22;6920;50.080;8.226;2024-01-15T16:40:18;2.30;99.90
13697;DHT22;6920;50.080;8.226;2024-01-15T16:42:45;2.30;99.90
13697;DHT22;6920;50.080;8.226;2024-01-15T16:45:14;2.20;99.90
13697;DHT22;6920;50.080;8.226;2024-01-15T16:50:09;2.20;99.90
13697;DHT22;6920;50.080;8.226;2024-01-15T16:57:35;2.20;99.90
13697;DHT22;6920;50.080;8.226;2024-01-15T17:00:05;2.30;99.90
13697;DHT22;6920;50.080;8.226;2024-01-15T17:02:33;2.30;99.90
13697;DHT22;6920;50.080;8.226;2024-01-15T17:05:02;2.20;99.90
13697;DHT22;6920;50.080;8.226;2024-01-15T17:09:59;2.20;99.90
13697;DHT22;6920;50.080;8.226;2024-01-15T17:14:58;2.20;99.90
13697;DHT22;6920;50.080;8.226;2024-01-15T17:17:25;2.20;99.90
13697;DHT22;6920;50.080;8.226;2024-01-15T17:19:54;2.20;99.90
13697;DHT22;6920;50.080;8.226;2024-01-15T17:22:21;2.20;99.90
13697;DHT22;6920;50.080;8.226;2024-01-15T17:24:49;2.20;99.90
13697;DHT22;6920;50.080;8.226;2024-01-15T17:27:17;2.20;99.90
13697;DHT22;6920;50.080;8.226;2024-01-15T17:44:35;2.10;99.90
13697;DHT22;6920;50.080;8.226;2024-01-15T17:47:05;2.00;99.90
13697;DHT22;6920;50.080;8.226;2024-01-15T17:52:07;2.10;99.90
13697;DHT22;6920;50.080;8.226;2024-01-15T17:54:36;2.10;99.90
13697;DHT22;6920;50.080;8.226;2024-01-15T17:59:35;2.20;99.90
13697;DHT22;6920;50.080;8.226;2024-01-15T18:07:02;2.20;99.90
13697;DHT22;6920;50.080;8.226;2024-01-15T18:31:48;2.30;99.90
13697;DHT22;6920;50.080;8.226;2024-01-15T18:39:15;0.30;99.90
13697;DHT22;6920;50.080;8.226;2024-01-15T18:41:50;2.40;99.90
13697;DHT22;6920;50.080;8.226;2024-01-15T18:44:18;2.40;99.90
13697;DHT22;6920;50.080;8.226;2024-01-15T18:46:53;2.40;99.90
13697;DHT22;6920;50.080;8.226;2024-01-15T18:49:36;2.40;99.90
13697;DHT22;6920;50.080;8.226;2024-01-15T18:52:11;2.40;99.90
13697;DHT22;6920;50.080;8.226;2024-01-15T18:54:46;2.40;99.90
13697;DHT22;6920;50.080;8.226;2024-01-15T19:07:25;2.40;99.90
13697;DHT22;6920;50.080;8.226;2024-01-15T19:17:28;2.10;99.90
13697;DHT22;6920;50.080;8.226;2024-01-15T19:20:03;2.30;99.90
13697;DHT22;6920;50.080;8.226;2024-01-15T19:22:40;-0.90;99.90
13697;DHT22;6920;50.080;8.226;2024-01-15T19:30:14;2.10;99.90
13697;DHT22;6920;50.080;8.226;2024-01-15T19:32:42;2.10;99.90
13697;DHT22;6920;50.080;8.226;2024-01-15T19:43:19;2.10;99.90
13697;DHT22;6920;50.080;8.226;2024-01-15T19:46:03;2.10;99.90
13697;DHT22;6920;50.080;8.226;2024-01-15T19:48:32;2.10;99.90
13697;DHT22;6920;50.080;8.226;2024-01-15T19:51:03;2.10;99.90
13697;DHT22;6920;50.080;8.226;2024-01-15T19:53:44;2.00;99.90
13697;DHT22;6920;50.080;8.226;2024-01-15T19:56:26;2.00;99.90
13697;DHT22;6920;50.080;8.226;2024-01-15T20:01:56;1.90;99.90
13697;DHT22;6920;50.080;8.226;2024-01-15T20:04:33;1.90;99.90
13697;DHT22;6920;50.080;8.226;2024-01-15T20:07:14;2.00;99.90
13697;DHT22;6920;50.080;8.226;2024-01-15T20:09:43;1.90;99.90
13697;DHT22;6920;50.080;8.226;2024-01-15T20:12:12;1.90;99.90
13697;DHT22;6920;50.080;8.226;2024-01-15T20:14:44;1.90;99.90
13697;DHT22;6920;50.080;8.226;2024-01-15T20:17:13;1.90;99.90
13697;DHT22;6920;50.080;8.226;2024-01-15T20:19:40;1.90;99.90
13697;DHT22;6920;50.080;8.226;2024-01-15T20:22:09;1.90;99.90
13697;DHT22;6920;50.080;8.226;2024-01-15T20:24:36;2.70;99.90
13697;DHT22;6920;50.080;8.226;2024-01-15T20:27:06;1.90;99.90
13697;DHT22;6920;50.080;8.226;2024-01-15T20:29:34;1.80;99.90
13697;DHT22;6920;50.080;8.226;2024-01-15T20:34:44;1.90;99.90
13697;DHT22;6920;50.080;8.226;2024-01-15T20:37:18;1.80;99.90
13697;DHT22;6920;50.080;8.226;2024-01-15T20:39:52;1.80;99.90
13697;DHT22;6920;50.080;8.226;2024-01-15T20:42:49;1.80;99.90
13697;DHT22;6920;50.080;8.226;2024-01-15T20:51:32;1.70;99.90
13697;DHT22;6920;50.080;8.226;2024-01-15T20:54:22;1.70;99.90
13697;DHT22;6920;50.080;8.226;2024-01-15T22:08:37;1.60;99.90
13697;DHT22;6920;50.080;8.226;2024-01-15T22:11:05;1.50;99.90
13697;DHT22;6920;50.080;8.226;2024-01-15T22:13:35;1.70;99.90
13697;DHT22;6920;50.080;8.226;2024-01-15T22:16:03;1.70;99.90
13697;DHT22;6920;50.080;8.226;2024-01-15T22:18:41;1.70;99.90
13697;DHT22;6920;50.080;8.226;2024-01-15T22:21:10;1.70;99.90
13697;DHT22;6920;50.080;8.226;2024-01-15T22:24:01;1.60;99.90
13697;DHT22;6920;50.080;8.226;2024-01-15T22:26:46;1.60;99.90
13697;DHT22;6920;50.080;8.226;2024-01-15T22:29:25;1.60;99.90
13697;DHT22;6920;50.080;8.226;2024-01-15T22:31:57;1.60;99.90
13697;DHT22;6920;50.080;8.226;2024-01-15T22:34:30;1.60;99.90
13697;DHT22;6920;50.080;8.226;2024-01-15T22:37:00;1.60;99.90
13697;DHT22;6920;50.080;8.226;2024-01-15T22:39:42;1.60;99.90
13697;DHT22;6920;50.080;8.226;2024-01-15T22:42:12;1.60;99.90
13697;DHT22;6920;50.080;8.226;2024-01-15T22:44:39;1.60;99.90
13697;DHT22;6920;50.080;8.226;2024-01-15T22:47:07;1.70;99.90
13697;DHT22;6920;50.080;8.226;2024-01-15T22:49:34;1.60;99.90
13697;DHT22;6920;50.080;8.226;2024-01-15T22:52:04;1.60;99.90
13697;DHT22;6920;50.080;8.226;2024-01-15T22:54:31;1.50;99.90
13697;DHT22;6920;50.080;8.226;2024-01-15T22:57:03;1.50;99.90
13697;DHT22;6920;50.080;8.226;2024-01-15T22:59:32;1.40;99.90
13697;DHT22;6920;50.080;8.226;2024-01-15T23:02:03;1.40;99.90
13697;DHT22;6920;50.080;8.226;2024-01-15T23:04:41;1.30;99.90
13697;DHT22;6920;50.080;8.226;2024-01-15T23:07:09;1.30;99.90
13697;DHT22;6920;50.080;8.226;2024-01-15T23:09:38;1.30;99.90
13697;DHT22;6920;50.080;8.226;2024-01-15T23:12:08;1.30;99.90
13697;DHT22;6920;50.080;8.226;2024-01-15T23:14:36;1.20;99.90
13697;DHT22;6920;50.080;8.226;2024-01-15T23:17:12;1.20;99.90
13697;DHT22;6920;50.080;8.226;2024-01-15T23:19:42;1.20;99.90
13697;DHT22;6920;50.080;8.226;2024-01-15T23:22:09;1.20;99.90
13697;DHT22;6920;50.080;8.226;2024-01-15T23:24:45;1.10;99.90
13697;DHT22;6920;50.080;8.226;2024-01-15T23:27:16;1.10;99.90
13697;DHT22;6920;50.080;8.226;2024-01-15T23:29:44;1.00;99.90
13697;DHT22;6920;50.080;8.226;2024-01-15T23:32:15;1.10;99.90
13697;DHT22;6920;50.080;8.226;2024-01-15T23:34:43;1.10;99.90
13697;DHT22;6920;50.080;8.226;2024-01-15T23:37:16;1.10;99.90
13697;DHT22;6920;50.080;8.226;2024-01-15T23:39:44;1.10;99.90
13697;DHT22;6920;50.080;8.226;2024-01-15T23:42:14;1.10;99.90
13697;DHT22;6920;50.080;8.226;2024-01-15T23:44:44;1.10;99.90
13697;DHT22;6920;50.080;8.226;2024-01-15T23:47:12;1.10;99.90
13697;DHT22;6920;50.080;8.226;2024-01-15T23:49:40;1.10;99.90
13697;DHT22;6920;50.080;8.226;2024-01-15T23:52:09;1.10;99.90
13697;DHT22;6920;50.080;8.226;2024-01-15T23:54:36;1.20;99.90
13697;DHT22;6920;50.080;8.226;2024-01-15T23:57:06;1.20;99.90
13697;DHT22;6920;50.080;8.226;2024-01-15T23:59:39;1.20;99.90
